Time;durP1;ratioP1;P1;durP2;ratioP2;P2;SDS_P1;SDS_P2;PMS_P1;PMS_P2;Temp;Humidity;BMP_temperature;BMP_pressure;BME280_temperature;BME280_humidity;BME280_pressure;Samples;Min_cycle;Max_cycle;Signal;HPM_P1;HPM_P2
2022/11/29 00:01:14;;;;;;;24.50;12.70;;;;;;;4.90;90.47;97929.19;5004025;28;20164;-83
2022/11/29 00:03:40;;;;;;;23.20;12.85;;;;;;;4.84;90.90;97935.88;5003196;28;20034;-82
2022/11/29 00:06:12;;;;;;;25.13;13.75;;;;;;;4.82;91.18;97929.22;5002883;28;20038;-82
2022/11/29 00:08:40;;;;;;;20.80;11.35;;;;;;;4.76;90.92;97928.09;5004728;28;20044;-83
2022/11/29 00:11:11;;;;;;;24.02;12.50;;;;;;;4.81;91.38;97922.41;5005813;28;20046;-82
2022/11/29 00:13:38;;;;;;;26.25;13.45;;;;;;;4.84;91.15;97917.69;5019346;28;20041;-83
2022/11/29 00:16:09;;;;;;;23.67;13.50;;;;;;;4.85;90.64;97908.09;5003976;28;20025;-82
2022/11/29 00:18:35;;;;;;;25.10;13.10;;;;;;;4.87;90.56;97921.75;5004480;28;20049;-82
2022/11/29 00:21:06;;;;;;;27.13;14.27;;;;;;;4.87;90.60;97924.34;5002864;28;20029;-82
2022/11/29 00:23:31;;;;;;;24.70;13.95;;;;;;;4.90;90.50;97915.38;5004205;28;20478;-82
2022/11/29 00:26:06;;;;;;;26.38;13.70;;;;;;;4.87;90.34;97907.94;5002249;28;20105;-82
2022/11/29 00:28:34;;;;;;;24.48;12.45;;;;;;;4.79;90.30;97911.34;5005591;28;20038;-81
2022/11/29 00:31:00;;;;;;;25.05;12.65;;;;;;;4.78;90.74;97918.34;5002533;28;20062;-82
2022/11/29 00:33:26;;;;;;;23.48;12.90;;;;;;;4.80;90.55;97916.41;5003999;28;20041;-81
2022/11/29 00:35:54;;;;;;;26.17;14.38;;;;;;;4.83;90.83;97915.25;5004022;28;20040;-82
2022/11/29 00:38:19;;;;;;;23.13;12.88;;;;;;;4.82;90.38;97924.03;5004350;28;20038;-82
2022/11/29 00:40:51;;;;;;;22.33;12.38;;;;;;;4.79;90.49;97919.16;5002945;28;20025;-82
2022/11/29 00:43:16;;;;;;;24.95;13.73;;;;;;;4.81;90.89;97917.22;5001620;28;20037;-82
2022/11/29 00:45:42;;;;;;;26.23;13.27;;;;;;;4.91;90.54;97912.63;5001494;28;20095;-82
2022/11/29 00:48:07;;;;;;;22.60;13.30;;;;;;;4.97;89.89;97917.13;5003527;28;20034;-82
2022/11/29 00:50:33;;;;;;;21.75;12.57;;;;;;;4.98;90.12;97913.59;5002477;28;20049;-82
2022/11/29 00:52:58;;;;;;;22.50;12.48;;;;;;;4.82;90.01;97913.63;5003428;28;20470;-82
2022/11/29 00:55:24;;;;;;;25.67;13.90;;;;;;;4.84;90.70;97912.47;5002995;28;20062;-82
2022/11/29 00:57:49;;;;;;;24.08;13.02;;;;;;;4.88;90.83;97910.38;5001760;28;20041;-82
2022/11/29 01:00:15;;;;;;;23.50;13.07;;;;;;;4.86;90.20;97906.31;5002277;28;20038;-82
2022/11/29 01:02:41;;;;;;;20.67;12.73;;;;;;;4.92;90.00;97906.47;5003432;28;20038;-82
2022/11/29 01:05:07;;;;;;;23.83;13.75;;;;;;;4.92;90.09;97909.06;5000968;28;20034;-82
2022/11/29 01:07:32;;;;;;;25.17;14.25;;;;;;;4.95;89.36;97903.50;5003272;28;20034;-81
2022/11/29 01:09:58;;;;;;;25.02;13.68;;;;;;;5.00;89.86;97903.81;5002075;28;20044;-81
2022/11/29 01:12:23;;;;;;;22.50;13.27;;;;;;;4.94;89.32;97901.91;5003152;28;20485;-82
2022/11/29 01:14:49;;;;;;;23.17;12.65;;;;;;;4.89;88.95;97909.38;5017506;28;20034;-82
2022/11/29 01:17:14;;;;;;;26.35;13.82;;;;;;;4.91;89.75;97902.22;5001402;28;20070;-82
2022/11/29 01:19:40;;;;;;;23.77;12.80;;;;;;;4.88;89.15;97902.56;5002728;28;20477;-82
2022/11/29 01:22:05;;;;;;;22.77;13.55;;;;;;;4.88;89.46;97905.16;5001800;28;20044;-82
2022/11/29 01:24:31;;;;;;;23.45;13.57;;;;;;;4.81;89.26;97902.44;5003665;28;20162;-82
2022/11/29 01:26:56;;;;;;;24.38;13.60;;;;;;;4.82;89.62;97905.84;5002559;28;20436;-82
2022/11/29 01:29:21;;;;;;;22.08;12.95;;;;;;;4.91;90.00;97902.22;5002370;28;20034;-82
2022/11/29 01:31:47;;;;;;;24.33;13.23;;;;;;;4.94;89.56;97901.09;5002427;28;20050;-82
2022/11/29 01:34:12;;;;;;;27.75;13.70;;;;;;;4.96;89.47;97899.13;5000064;28;20141;-82
2022/11/29 01:36:38;;;;;;;26.00;13.75;;;;;;;4.96;89.33;97896.53;5001865;28;20031;-82
2022/11/29 01:39:05;;;;;;;22.75;12.70;;;;;;;5.00;88.98;97909.03;5002065;28;20040;-81
2022/11/29 01:41:33;;;;;;;24.70;12.80;;;;;;;4.92;88.59;97890.88;5002680;28;20113;-81
2022/11/29 01:44:12;;;;;;;23.95;13.45;;;;;;;4.91;89.32;97907.41;5002441;28;20049;-81
2022/11/29 01:46:45;;;;;;;22.13;13.30;;;;;;;4.86;88.86;97899.34;5001632;28;20117;-82
2022/11/29 01:49:32;;;;;;;21.35;12.93;;;;;;;4.85;89.22;97902.91;5003237;28;20402;-82
2022/11/29 01:52:12;;;;;;;20.80;12.35;;;;;;;4.89;89.48;97911.19;5002012;28;20046;-81
2022/11/29 01:54:43;;;;;;;22.85;12.88;;;;;;;4.93;89.24;97899.47;4998861;28;20088;-82
2022/11/29 01:57:09;;;;;;;25.63;13.65;;;;;;;4.85;88.45;97897.69;5001191;28;20042;-82
2022/11/29 01:59:43;;;;;;;21.67;12.15;;;;;;;4.91;89.12;97902.22;5001272;28;20744;-81
2022/11/29 02:02:17;;;;;;;23.23;13.30;;;;;;;4.94;88.42;97904.50;5002106;28;20041;-81
2022/11/29 02:04:45;;;;;;;22.67;13.20;;;;;;;4.94;88.44;97896.69;5003125;28;20109;-82
2022/11/29 02:07:12;;;;;;;21.42;13.05;;;;;;;4.88;88.38;97892.19;5000220;28;20037;-82
2022/11/29 02:09:37;;;;;;;25.30;13.40;;;;;;;4.95;88.58;97906.13;5000921;28;20448;-81
2022/11/29 02:12:33;;;;;;;22.50;13.40;;;;;;;4.98;88.62;97903.19;5018041;28;20130;-81
2022/11/29 02:15:17;;;;;;;22.23;12.68;;;;;;;4.97;88.42;97906.75;5001698;28;20040;-81
2022/11/29 02:18:02;;;;;;;22.02;12.68;;;;;;;5.00;88.27;97900.41;5002213;28;20065;-82
2022/11/29 02:21:14;;;;;;;26.42;12.68;;;;;;;4.99;87.71;97898.81;5000775;28;20061;-82
2022/11/29 02:23:46;;;;;;;24.73;13.68;;;;;;;5.01;88.07;97904.63;5015953;28;20023;-82
2022/11/29 02:26:56;;;;;;;25.67;13.85;;;;;;;5.06;87.97;97903.16;4999758;28;20034;-82
2022/11/29 02:29:56;;;;;;;22.50;13.67;;;;;;;5.07;87.95;97907.38;5002251;28;20041;-81
2022/11/29 02:32:33;;;;;;;22.63;12.70;;;;;;;4.99;86.99;97904.81;5001147;28;20094;-81
2022/11/29 02:35:42;;;;;;;24.95;13.77;;;;;;;5.05;87.49;97900.72;5000621;28;20033;-81
2022/11/29 02:38:26;;;;;;;21.70;12.43;;;;;;;5.03;87.16;97905.25;5005052;28;20030;-82
2022/11/29 02:41:06;;;;;;;26.05;13.18;;;;;;;5.03;87.52;97908.66;5006310;28;20088;-81
2022/11/29 02:44:33;;;;;;;24.80;13.80;;;;;;;5.09;87.23;97900.19;5006572;28;20049;-82
2022/11/29 02:47:35;;;;;;;22.25;12.48;;;;;;;5.04;87.13;97902.53;5004532;28;20462;-82
2022/11/29 02:50:40;;;;;;;24.35;12.40;;;;;;;5.01;87.00;97897.63;5004049;28;20037;-81
2022/11/29 02:53:41;;;;;;;25.30;13.57;;;;;;;5.08;87.70;97908.16;5004639;28;20500;-82
2022/11/29 02:56:42;;;;;;;22.73;12.80;;;;;;;5.09;87.22;97905.41;5005908;28;20061;-81
2022/11/29 02:59:36;;;;;;;22.35;13.10;;;;;;;5.09;87.69;97912.38;5005871;28;20057;-82
2022/11/29 03:02:49;;;;;;;24.98;13.30;;;;;;;5.11;87.56;97907.84;5003696;28;20046;-82
2022/11/29 03:05:43;;;;;;;23.10;12.68;;;;;;;5.22;87.65;97906.66;5017960;28;20113;-82
2022/11/29 03:08:45;;;;;;;21.52;12.80;;;;;;;5.21;87.14;97908.44;5005906;28;20037;-82
2022/11/29 03:11:28;;;;;;;;;;;;;;;5.16;87.21;97920.31;5006072;28;20041;-82
2022/11/29 03:14:25;;;;;;;20.88;11.70;;;;;;;5.17;86.96;97921.97;5000937;28;20356;-82
2022/11/29 03:17:16;;;;;;;23.05;12.63;;;;;;;5.14;87.32;97922.28;5006061;28;20038;-82
2022/11/29 03:20:13;;;;;;;22.88;12.95;;;;;;;5.02;87.86;97925.25;5004291;28;20038;-82
2022/11/29 03:23:15;;;;;;;22.15;12.43;;;;;;;5.00;88.37;97919.41;5006103;28;20241;-82
2022/11/29 03:26:03;;;;;;;21.35;12.27;;;;;;;4.95;88.43;97921.72;5003605;28;20109;-82
2022/11/29 03:28:40;;;;;;;20.63;12.18;;;;;;;4.99;88.71;97922.19;5003312;28;20117;-82
2022/11/29 03:31:22;;;;;;;21.88;12.27;;;;;;;5.00;88.69;97918.63;5004484;28;20125;-82
2022/11/29 03:34:37;;;;;;;23.25;12.50;;;;;;;4.99;89.01;97927.41;5003165;28;20069;-82
2022/11/29 03:37:44;;;;;;;19.20;11.55;;;;;;;4.92;88.59;97919.47;5005042;28;20104;-81
2022/11/29 03:40:20;;;;;;;21.65;13.27;;;;;;;4.97;88.93;97931.94;5005619;28;20046;-82
2022/11/29 03:43:08;;;;;;;21.02;12.88;;;;;;;4.97;89.42;97935.34;5001706;28;20068;-82
2022/11/29 03:45:52;;;;;;;24.75;12.73;;;;;;;4.99;89.06;97941.19;5003321;28;20038;-81
2022/11/29 03:48:45;;;;;;;19.95;12.52;;;;;;;5.02;88.73;97933.03;5001141;28;20041;-82
2022/11/29 03:51:40;;;;;;;23.55;13.07;;;;;;;5.05;89.22;97940.53;5003279;28;20041;-81
2022/11/29 03:54:13;;;;;;;25.15;12.77;;;;;;;5.09;89.02;97936.59;5002217;28;20046;-81
2022/11/29 03:56:40;;;;;;;22.40;13.65;;;;;;;5.16;88.87;97941.13;5002393;28;20457;-82
2022/11/29 03:59:29;;;;;;;24.10;13.68;;;;;;;5.16;89.05;97931.56;5004006;28;20541;-82
2022/11/29 04:02:19;;;;;;;22.75;11.73;;;;;;;5.13;88.85;97933.66;5002472;28;20168;-81
2022/11/29 04:05:26;;;;;;;22.45;12.35;;;;;;;5.15;88.96;97936.91;5017351;28;20037;-82
2022/11/29 04:08:38;;;;;;;20.05;11.70;;;;;;;5.27;89.14;97940.75;4997866;28;20173;-81
2022/11/29 04:11:53;;;;;;;19.65;12.07;;;;;;;5.34;88.24;97933.91;5003205;28;20034;-81
2022/11/29 04:15:11;;;;;;;22.50;11.80;;;;;;;5.36;87.03;97937.13;5004052;28;20042;-82
2022/11/29 04:18:05;;;;;;;21.73;11.90;;;;;;;5.35;87.27;97932.94;5001880;28;20026;-82
2022/11/29 04:21:11;;;;;;;21.35;11.77;;;;;;;5.43;87.37;97932.06;5002919;28;20449;-82
2022/11/29 04:24:30;;;;;;;21.73;12.23;;;;;;;5.42;86.88;97935.66;5007806;28;20054;-82
2022/11/29 04:27:19;;;;;;;25.02;12.23;;;;;;;5.27;86.53;97938.16;5003057;28;20038;-82
2022/11/29 04:30:02;;;;;;;24.88;13.15;;;;;;;5.22;86.81;97936.06;5005216;28;20109;-82
2022/11/29 04:32:40;;;;;;;21.88;12.75;;;;;;;5.21;87.82;97939.63;5003700;28;20046;-82
2022/11/29 04:36:10;;;;;;;21.70;12.73;;;;;;;5.17;87.66;97942.75;5006090;28;20036;-82
2022/11/29 04:39:12;;;;;;;24.05;12.30;;;;;;;5.16;88.17;97951.50;4995838;28;20058;-82
2022/11/29 04:41:48;;;;;;;22.65;12.50;;;;;;;5.21;88.38;97946.63;5002791;28;20389;-82
2022/11/29 04:44:22;;;;;;;19.77;11.60;;;;;;;5.19;88.26;97951.19;5016216;28;20433;-83
2022/11/29 04:47:48;;;;;;;21.05;12.68;;;;;;;5.21;88.45;97957.84;5004262;28;20046;-82
2022/11/29 04:50:34;;;;;;;23.08;12.70;;;;;;;5.24;88.64;97960.09;5010596;28;20402;-82
2022/11/29 04:53:26;;;;;;;21.83;12.07;;;;;;;5.30;88.52;97962.03;5002568;28;20037;-82
2022/11/29 04:56:42;;;;;;;21.63;12.32;;;;;;;5.34;88.31;97965.13;5002596;28;20073;-82
2022/11/29 04:59:46;;;;;;;21.40;12.02;;;;;;;5.34;87.68;97958.13;5003823;28;20130;-82
2022/11/29 05:02:39;;;;;;;20.27;12.43;;;;;;;5.33;87.42;97964.28;5000196;28;20041;-83
2022/11/29 05:05:30;;;;;;;20.98;12.07;;;;;;;5.36;88.14;97966.56;5001226;28;20461;-82
2022/11/29 05:08:42;;;;;;;20.65;12.32;;;;;;;5.36;88.06;97966.56;5004980;28;20412;-82
2022/11/29 05:11:28;;;;;;;22.98;12.55;;;;;;;5.37;87.96;97959.56;5002215;28;20038;-81
2022/11/29 05:14:51;;;;;;;20.45;11.68;;;;;;;5.38;87.95;97961.97;5002590;28;20045;-82
2022/11/29 05:17:45;;;;;;;22.23;11.98;;;;;;;5.37;88.28;97955.16;5001920;28;20042;-82
2022/11/29 05:20:44;;;;;;;21.88;12.38;;;;;;;5.47;88.05;97970.56;5002856;28;20113;-82
2022/11/29 05:23:47;;;;;;;22.67;12.52;;;;;;;5.41;87.86;97976.47;5018668;28;20092;-82
2022/11/29 05:26:42;;;;;;;21.17;12.43;;;;;;;5.44;87.95;97981.31;5002148;28;20054;-81
2022/11/29 05:29:24;;;;;;;21.15;12.73;;;;;;;5.45;87.90;97977.72;5000782;28;20034;-82
2022/11/29 05:32:11;;;;;;;23.90;12.48;;;;;;;5.54;87.94;97987.13;5003645;28;20062;-82
2022/11/29 05:35:01;;;;;;;22.63;12.38;;;;;;;5.54;87.83;97976.72;5007419;28;20049;-81
2022/11/29 05:37:45;;;;;;;22.55;12.00;;;;;;;5.57;87.80;97991.97;5001665;28;20091;-82
2022/11/29 05:40:41;;;;;;;22.70;12.30;;;;;;;5.59;88.04;97990.03;5003749;28;20041;-82
2022/11/29 05:43:31;;;;;;;21.00;12.23;;;;;;;5.56;87.86;97984.34;5004749;28;20033;-82
2022/11/29 05:46:27;;;;;;;24.63;12.35;;;;;;;5.52;87.89;97985.69;4999323;28;20026;-82
2022/11/29 05:49:20;;;;;;;23.40;12.40;;;;;;;5.48;88.75;97993.00;5000678;28;20092;-82
2022/11/29 05:51:58;;;;;;;21.70;12.30;;;;;;;5.51;88.59;97992.66;5000982;28;20069;-82
2022/11/29 05:54:40;;;;;;;24.15;12.88;;;;;;;5.50;87.78;98001.44;4999367;28;20040;-82
2022/11/29 05:57:27;;;;;;;21.77;12.02;;;;;;;5.40;88.15;97995.66;5001851;28;20370;-82
2022/11/29 05:59:57;;;;;;;21.63;11.95;;;;;;;5.42;88.69;97998.06;5000271;28;20112;-82
2022/11/29 06:02:26;;;;;;;25.70;12.93;;;;;;;5.42;89.07;98005.88;5014797;28;20026;-82
2022/11/29 06:05:25;;;;;;;20.77;11.75;;;;;;;5.34;88.92;97993.72;5002901;28;20689;-82
2022/11/29 06:08:24;;;;;;;22.02;11.73;;;;;;;5.36;89.19;98008.16;4998485;28;20026;-82
2022/11/29 06:11:20;;;;;;;21.27;11.90;;;;;;;5.34;89.08;98004.13;4999727;28;20076;-82
2022/11/29 06:14:15;;;;;;;22.23;12.45;;;;;;;5.39;89.09;98007.00;5004935;28;20041;-82
2022/11/29 06:17:24;;;;;;;20.05;11.40;;;;;;;5.44;88.91;98006.50;5006860;28;20046;-82
2022/11/29 06:20:29;;;;;;;23.63;12.68;;;;;;;5.41;88.73;98002.47;5003514;28;20034;-82
2022/11/29 06:23:27;;;;;;;21.73;12.52;;;;;;;5.36;89.49;98008.16;5005159;28;20065;-82
2022/11/29 06:26:29;;;;;;;21.08;11.85;;;;;;;5.38;89.29;98018.41;5006902;28;20105;-82
2022/11/29 06:29:00;;;;;;;;;;;;;;;5.38;90.06;98018.41;5006099;28;20076;-82
2022/11/29 06:31:32;;;;;;;;;;;;;;;5.36;89.90;98025.56;5007748;28;20012;-82
2022/11/29 06:34:08;;;;;;;21.00;11.20;;;;;;;5.39;90.43;98022.63;5005704;28;20288;-82
2022/11/29 06:36:59;;;;;;;19.15;10.73;;;;;;;5.47;90.24;98025.19;5008616;28;20552;-82
2022/11/29 06:39:25;;;;;;;21.40;12.02;;;;;;;5.50;89.39;98027.44;5006005;28;20030;-82
2022/11/29 06:41:50;;;;;;;19.70;11.85;;;;;;;5.47;89.35;98024.41;5004957;28;20060;-83
2022/11/29 06:44:16;;;;;;;21.05;11.98;;;;;;;5.43;89.33;98036.91;5001276;28;20620;-82
2022/11/29 06:46:47;;;;;;;21.77;12.07;;;;;;;5.41;89.41;98025.88;5005413;28;20030;-82
2022/11/29 06:49:45;;;;;;;20.85;12.88;;;;;;;5.50;90.04;98035.25;5006153;28;20504;-82
2022/11/29 06:52:16;;;;;;;22.52;12.32;;;;;;;5.55;89.78;98040.78;4988303;28;20037;-83
2022/11/29 06:54:57;;;;;;;22.75;12.57;;;;;;;5.61;89.29;98039.28;4994714;28;20037;-83
2022/11/29 06:58:02;;;;;;;22.23;12.13;;;;;;;5.62;88.81;98041.72;5004728;28;20046;-82
2022/11/29 07:00:49;;;;;;;20.35;11.65;;;;;;;5.63;88.68;98042.53;5004873;28;20049;-82
2022/11/29 07:03:46;;;;;;;21.60;11.77;;;;;;;5.61;88.63;98028.88;5006248;28;20041;-82
2022/11/29 07:06:28;;;;;;;22.75;11.20;;;;;;;5.65;87.66;98051.00;5003798;28;20726;-83
2022/11/29 07:09:14;;;;;;;25.10;12.68;;;;;;;5.68;88.40;98057.63;5002281;28;20089;-83
2022/11/29 07:11:41;;;;;;;21.85;11.60;;;;;;;5.55;88.51;98053.78;5000715;28;20066;-83
2022/11/29 07:14:08;;;;;;;25.70;12.88;;;;;;;5.60;88.56;98055.88;5006551;28;20038;-84
2022/11/29 07:16:55;;;;;;;21.40;12.32;;;;;;;5.67;88.60;98067.22;5004195;28;20052;-83
2022/11/29 07:20:13;;;;;;;22.42;11.70;;;;;;;5.64;88.59;98065.78;5004096;28;20038;-83
2022/11/29 07:23:10;;;;;;;21.00;11.98;;;;;;;5.63;88.65;98058.94;4995941;28;20050;-83
2022/11/29 07:25:59;;;;;;;22.88;11.95;;;;;;;5.62;88.80;98064.31;5003862;28;20172;-83
2022/11/29 07:29:12;;;;;;;23.08;12.52;;;;;;;5.55;89.20;98060.78;5003610;28;20035;-83
2022/11/29 07:32:06;;;;;;;20.80;11.95;;;;;;;5.61;89.15;98071.31;5002585;28;20107;-82
2022/11/29 07:34:46;;;;;;;18.88;11.15;;;;;;;5.50;89.06;98066.47;5000639;28;20042;-83
2022/11/29 07:37:51;;;;;;;21.52;12.18;;;;;;;5.63;90.22;98068.53;5002712;28;20044;-83
2022/11/29 07:40:44;;;;;;;23.20;11.95;;;;;;;5.69;89.66;98064.44;5005980;28;20138;-83
2022/11/29 07:43:47;;;;;;;21.40;11.77;;;;;;;5.68;89.18;98068.84;5001537;28;20038;-83
2022/11/29 07:46:13;;;;;;;22.65;12.57;;;;;;;5.61;89.55;98071.31;5003726;28;20030;-83
2022/11/29 07:48:38;;;;;;;22.73;11.55;;;;;;;5.61;89.39;98071.31;5003793;28;20033;-83
2022/11/29 07:51:04;;;;;;;22.60;11.63;;;;;;;5.68;89.74;98081.06;5003056;28;20034;-83
2022/11/29 07:53:30;;;;;;;19.38;11.32;;;;;;;5.80;89.71;98072.69;5005613;28;20634;-83
2022/11/29 07:55:56;;;;;;;22.92;12.35;;;;;;;5.86;89.48;98079.81;5002137;28;20037;-83
2022/11/29 07:58:22;;;;;;;23.45;12.70;;;;;;;5.82;89.27;98077.75;5001427;28;20521;-83
2022/11/29 08:00:47;;;;;;;21.63;12.38;;;;;;;5.86;88.78;98084.22;5003113;28;20038;-83
2022/11/29 08:03:13;;;;;;;22.73;11.90;;;;;;;5.83;88.63;98074.16;5004093;28;20042;-84
2022/11/29 08:05:39;;;;;;;18.85;11.77;;;;;;;5.90;88.63;98085.50;5003957;28;20041;-83
2022/11/29 08:08:05;;;;;;;21.67;12.80;;;;;;;5.92;88.63;98087.97;5017320;28;20057;-84
2022/11/29 08:10:31;;;;;;;19.77;11.48;;;;;;;5.88;87.85;98087.50;5007644;28;20042;-83
2022/11/29 08:12:57;;;;;;;23.02;12.13;;;;;;;5.86;88.34;98089.44;5003730;28;20033;-84
2022/11/29 08:15:24;;;;;;;22.45;11.50;;;;;;;5.88;88.07;98093.50;5004108;28;20083;-83
2022/11/29 08:17:51;;;;;;;23.10;11.68;;;;;;;5.96;88.46;98091.88;5004730;28;20040;-83
2022/11/29 08:20:17;;;;;;;21.30;11.32;;;;;;;5.97;87.75;98096.09;5004143;28;20034;-83
2022/11/29 08:22:42;;;;;;;21.40;11.48;;;;;;;6.01;88.46;98092.16;5003491;28;20049;-83
2022/11/29 08:25:09;;;;;;;18.70;11.05;;;;;;;6.01;87.33;98102.59;5004642;28;20069;-83
2022/11/29 08:27:37;;;;;;;20.33;11.45;;;;;;;6.01;87.31;98092.97;5005557;28;20034;-83
2022/11/29 08:30:05;;;;;;;22.13;10.93;;;;;;;6.03;87.46;98096.22;5004013;28;20053;-83
2022/11/29 08:32:32;;;;;;;21.90;11.43;;;;;;;6.03;87.35;98096.22;5002612;28;20700;-83
2022/11/29 08:34:57;;;;;;;19.02;11.02;;;;;;;6.05;87.46;98103.84;5002675;28;20049;-83
2022/11/29 08:37:23;;;;;;;19.90;11.48;;;;;;;5.97;87.48;98096.91;5006282;28;20541;-83
2022/11/29 08:39:48;;;;;;;20.83;11.07;;;;;;;6.02;87.76;98105.00;5007399;28;20377;-83
2022/11/29 08:42:15;;;;;;;20.15;11.23;;;;;;;6.11;87.95;98110.97;5000800;28;20042;-84
2022/11/29 08:44:40;;;;;;;21.00;11.10;;;;;;;5.98;87.15;98106.31;5001585;28;20048;-84
2022/11/29 08:50:02;;;;;;;17.13;10.57;;;;;;;6.11;88.18;98122.19;5002042;28;20123;-83
2022/11/29 08:55:27;;;;;;;21.17;11.23;;;;;;;6.14;87.78;98121.88;5002756;28;20053;-83
2022/11/29 08:58:00;;;;;;;23.35;12.55;;;;;;;6.14;87.82;98114.06;5000425;28;20121;-83
2022/11/29 09:00:26;;;;;;;20.67;11.45;;;;;;;6.25;87.58;98120.69;5002559;28;20037;-83
2022/11/29 09:02:51;;;;;;;16.70;10.13;;;;;;;6.26;87.63;98121.50;5001447;28;20045;-83
2022/11/29 09:05:17;;;;;;;20.02;11.27;;;;;;;6.30;87.04;98115.78;5002922;28;20045;-83
2022/11/29 09:07:42;;;;;;;20.58;11.32;;;;;;;6.26;87.29;98126.72;4995586;28;20045;-84
2022/11/29 09:10:10;;;;;;;19.83;11.23;;;;;;;6.24;86.95;98128.66;5003133;28;20117;-83
2022/11/29 09:12:37;;;;;;;18.10;10.35;;;;;;;6.20;87.14;98137.81;5003755;28;20081;-83
2022/11/29 09:15:09;;;;;;;19.92;10.55;;;;;;;6.07;86.97;98138.34;5001394;28;20410;-83
2022/11/29 09:17:35;;;;;;;20.17;11.77;;;;;;;6.28;88.53;98132.53;5004163;28;20494;-83
2022/11/29 09:20:01;;;;;;;23.65;12.18;;;;;;;6.33;87.76;98136.25;5003091;28;20176;-83
2022/11/29 09:22:29;;;;;;;18.73;10.52;;;;;;;6.32;87.41;98139.03;5000574;28;20042;-84
2022/11/29 09:24:54;;;;;;;17.80;10.18;;;;;;;6.29;87.65;98131.56;5006003;28;20036;-83
2022/11/29 09:27:20;;;;;;;19.88;11.55;;;;;;;6.47;87.03;98133.91;5002514;28;20049;-84
2022/11/29 09:29:51;;;;;;;20.05;11.18;;;;;;;6.53;86.63;98139.22;5004681;28;20022;-83
2022/11/29 09:32:16;;;;;;;20.92;10.93;;;;;;;6.45;86.66;98134.06;5001791;28;20096;-83
2022/11/29 09:34:42;;;;;;;21.10;11.10;;;;;;;6.42;86.48;98126.63;5003154;28;20030;-83
2022/11/29 09:37:07;;;;;;;19.30;10.10;;;;;;;6.39;86.31;98122.53;4998341;28;20030;-83
2022/11/29 09:39:33;;;;;;;19.15;10.90;;;;;;;6.43;86.68;98120.41;5001728;28;20150;-83
2022/11/29 09:42:31;;;;;;;17.92;10.57;;;;;;;6.60;86.73;98145.41;4999357;28;20140;-82
2022/11/29 09:45:09;;;;;;;18.25;10.98;;;;;;;6.60;86.68;98148.00;4999253;28;20038;-83
2022/11/29 09:48:12;;;;;;;19.70;11.60;;;;;;;6.69;87.41;98133.91;5000461;28;20116;-82
2022/11/29 09:50:53;;;;;;;17.85;10.38;;;;;;;6.63;86.79;98139.81;4999062;28;20049;-82
2022/11/29 09:53:43;;;;;;;17.25;10.23;;;;;;;6.63;86.33;98142.44;5000496;28;20036;-83
2022/11/29 09:56:17;;;;;;;17.83;10.43;;;;;;;6.81;87.69;98149.16;5001577;28;20034;-82
2022/11/29 09:58:56;;;;;;;16.92;9.75;;;;;;;6.75;86.34;98152.47;5013948;28;20048;-83
2022/11/29 10:01:36;;;;;;;16.10;10.23;;;;;;;6.71;86.69;98147.56;5002091;28;20034;-83
2022/11/29 10:04:11;;;;;;;18.58;9.82;;;;;;;6.65;86.13;98152.66;5001212;28;20045;-82
2022/11/29 10:06:49;;;;;;;16.92;9.32;;;;;;;6.77;86.48;98146.06;5000897;28;20125;-83
2022/11/29 10:09:39;;;;;;;24.05;17.17;;;;;;;6.80;87.22;98145.75;4999320;28;20072;-83
2022/11/29 10:12:35;;;;;;;16.30;9.80;;;;;;;6.85;85.71;98153.84;5002745;28;20038;-82
2022/11/29 10:15:26;;;;;;;14.82;9.63;;;;;;;6.94;85.74;98154.59;4999681;28;20838;-83
2022/11/29 10:18:04;;;;;;;16.13;9.65;;;;;;;6.96;85.39;98157.84;5002067;28;20060;-83
2022/11/29 10:20:40;;;;;;;15.57;10.43;;;;;;;6.98;85.78;98154.06;5001878;28;20042;-83
2022/11/29 10:23:47;;;;;;;16.77;9.35;;;;;;;7.02;85.88;98149.31;5000749;28;20092;-82
2022/11/29 10:26:13;;;;;;;18.42;10.05;;;;;;;7.03;84.99;98156.16;5002551;28;20046;-82
2022/11/29 10:28:44;;;;;;;15.75;10.20;;;;;;;7.09;85.71;98152.03;5001844;28;20339;-82
2022/11/29 10:31:30;;;;;;;17.48;9.95;;;;;;;7.09;86.13;98147.63;5000566;28;20053;-82
2022/11/29 10:34:01;;;;;;;18.73;10.95;;;;;;;7.11;86.16;98153.47;5017055;28;20045;-83
2022/11/29 10:36:58;;;;;;;18.05;10.60;;;;;;;7.12;85.80;98149.06;5000183;28;20050;-80
2022/11/29 10:39:43;;;;;;;20.13;10.40;;;;;;;7.11;85.80;98148.25;5000379;28;20084;-82
2022/11/29 10:45:36;;;;;;;17.17;10.55;;;;;;;7.16;85.81;98151.16;4995563;28;20096;-82
2022/11/29 10:48:10;;;;;;;18.98;10.35;;;;;;;7.22;86.43;98147.84;5014904;28;20034;-82
2022/11/29 10:50:39;;;;;;;16.98;10.38;;;;;;;7.28;85.78;98151.53;5002199;28;20092;-83
2022/11/29 10:53:13;;;;;;;21.83;11.18;;;;;;;7.28;85.79;98153.34;4997530;28;20037;-82
2022/11/29 10:56:08;;;;;;;17.70;10.32;;;;;;;7.25;85.26;98151.88;4999541;28;20037;-82
2022/11/29 10:58:35;;;;;;;17.70;10.23;;;;;;;7.21;84.98;98151.44;5002368;28;20046;-82
2022/11/29 11:01:05;;;;;;;17.60;10.88;;;;;;;7.16;85.91;98156.38;5003419;28;20029;-83
2022/11/29 11:03:41;;;;;;;20.90;11.10;;;;;;;7.24;86.94;98148.47;5004225;28;20176;-82
2022/11/29 11:06:20;;;;;;;21.48;11.60;;;;;;;7.23;86.32;98157.28;5004275;28;20044;-82
2022/11/29 11:09:19;;;;;;;18.75;10.82;;;;;;;7.29;85.97;98154.97;5018041;28;20037;-83
2022/11/29 11:11:56;;;;;;;18.02;10.00;;;;;;;7.41;85.66;98156.16;5006947;28;20038;-82
2022/11/29 11:14:30;;;;;;;19.25;10.75;;;;;;;7.41;83.97;98158.75;5003841;28;20449;-82
2022/11/29 11:17:31;;;;;;;17.35;10.80;;;;;;;7.40;85.03;98154.53;5002871;28;20068;-83
2022/11/29 11:20:07;;;;;;;19.38;11.00;;;;;;;7.37;84.34;98150.47;5005264;28;20049;-82
2022/11/29 11:22:38;;;;;;;18.65;10.82;;;;;;;7.53;84.63;98161.75;5004771;28;20077;-82
2022/11/29 11:25:28;;;;;;;20.45;10.35;;;;;;;7.43;83.76;98167.22;5005141;28;20037;-82
2022/11/29 11:27:55;;;;;;;18.27;10.40;;;;;;;7.25;83.71;98159.72;5021293;28;20029;-82
2022/11/29 11:30:27;;;;;;;18.23;10.18;;;;;;;7.16;84.41;98161.59;5004175;28;20463;-82
2022/11/29 11:33:39;;;;;;;18.95;10.73;;;;;;;7.16;85.84;98172.03;5004172;28;20098;-82
2022/11/29 11:36:11;;;;;;;22.70;10.50;;;;;;;7.18;85.63;98164.81;5003912;28;20493;-82
2022/11/29 11:38:49;;;;;;;16.85;10.50;;;;;;;7.24;85.39;98165.91;5002699;28;20038;-82
2022/11/29 11:44:52;;;;;;;15.98;10.20;;;;;;;7.19;85.22;98163.84;4997665;28;20034;-83
2022/11/29 11:47:23;;;;;;;19.75;10.63;;;;;;;7.33;86.02;98167.47;5002057;28;20045;-82
2022/11/29 11:50:01;;;;;;;18.15;9.98;;;;;;;7.29;84.96;98160.19;5016555;28;20041;-83
2022/11/29 11:52:38;;;;;;;17.60;9.95;;;;;;;7.33;85.71;98164.06;5003998;28;20125;-82
2022/11/29 11:55:29;;;;;;;17.25;9.82;;;;;;;7.42;86.65;98170.81;5004584;28;20042;-82
2022/11/29 11:58:04;;;;;;;17.55;10.00;;;;;;;7.38;85.66;98174.78;5000911;28;20033;-82
2022/11/29 12:00:53;;;;;;;19.65;10.40;;;;;;;7.36;86.06;98171.53;5002594;28;20046;-82
2022/11/29 12:03:25;;;;;;;18.15;11.00;;;;;;;7.44;86.59;98176.69;5001208;28;20034;-83
2022/11/29 12:05:56;;;;;;;22.92;10.68;;;;;;;7.48;86.30;98175.31;5001161;28;20026;-83
2022/11/29 12:08:25;;;;;;;19.42;11.00;;;;;;;7.62;86.78;98166.72;5017773;28;20694;-82
2022/11/29 12:10:59;;;;;;;18.75;10.32;;;;;;;7.55;84.59;98175.41;5004571;28;20041;-83
2022/11/29 12:13:32;;;;;;;19.50;11.32;;;;;;;7.58;85.38;98181.09;5001432;28;20076;-83
2022/11/29 12:16:06;;;;;;;18.17;10.07;;;;;;;7.53;84.74;98177.41;5003664;28;20042;-84
2022/11/29 12:18:51;;;;;;;17.55;11.20;;;;;;;7.62;85.61;98177.16;5004527;28;20031;-81
2022/11/29 12:21:30;;;;;;;17.27;10.35;;;;;;;7.59;84.71;98176.69;5003585;28;20038;-81
2022/11/29 12:24:12;;;;;;;17.77;10.68;;;;;;;7.66;85.30;98181.00;5003977;28;20043;-81
2022/11/29 12:26:40;;;;;;;17.10;10.70;;;;;;;7.71;84.81;98176.06;5004844;28;20073;-81
2022/11/29 12:29:18;;;;;;;23.02;11.52;;;;;;;7.73;84.98;98184.53;5004349;28;20023;-81
2022/11/29 12:32:09;;;;;;;20.73;10.75;;;;;;;7.77;85.17;98185.00;5007284;28;20049;-81
2022/11/29 12:35:05;;;;;;;19.90;11.45;;;;;;;7.69;84.71;98193.72;5002518;28;20038;-81
2022/11/29 12:37:48;;;;;;;20.45;11.68;;;;;;;7.59;84.63;98190.56;5016373;28;20038;-81
2022/11/29 12:41:01;;;;;;;22.77;10.68;;;;;;;7.55;83.87;98181.44;5001488;28;20165;-80
2022/11/29 12:44:17;;;;;;;18.70;10.82;;;;;;;7.40;85.21;98188.47;5001227;28;20034;-81